Time;durP1;ratioP1;P1;durP2;ratioP2;P2;SDS_P1;SDS_P2;PMS_P1;PMS_P2;Temp;Humidity;BMP_temperature;BMP_pressure;BME280_temperature;BME280_humidity;BME280_pressure;Samples;Min_cycle;Max_cycle;Signal;HPM_P1;HPM_P2
2023/01/02 00:00:28;;;;;;;0.30;0.30;;;9.70;99.90;;;;;;5037717;28;20048;-88
2023/01/02 00:02:54;;;;;;;1.10;0.40;;;9.70;99.90;;;;;;5054880;28;20036;-88
2023/01/02 00:05:19;;;;;;;0.43;0.20;;;9.70;99.90;;;;;;5037166;28;20185;-88
2023/01/02 00:07:45;;;;;;;0.37;0.33;;;9.70;99.90;;;;;;5050533;28;20400;-89
2023/01/02 00:10:11;;;;;;;0.33;0.30;;;9.70;99.90;;;;;;5006320;28;20055;-89
2023/01/02 00:12:36;;;;;;;0.57;0.23;;;9.70;99.90;;;;;;5038038;28;20044;-88
2023/01/02 00:15:03;;;;;;;0.20;0.20;;;9.80;99.90;;;;;;5021678;28;20518;-88
2023/01/02 00:17:29;;;;;;;1.98;0.47;;;9.70;99.90;;;;;;5037604;28;20147;-88
2023/01/02 00:19:55;;;;;;;0.20;0.20;;;9.80;99.90;;;;;;5037468;28;20182;-88
2023/01/02 00:22:21;;;;;;;0.88;0.50;;;9.80;99.90;;;;;;5053564;28;20064;-88
2023/01/02 00:24:47;;;;;;;0.70;0.30;;;9.80;99.90;;;;;;5021345;28;20048;-88
2023/01/02 00:27:14;;;;;;;0.40;0.27;;;9.80;99.90;;;;;;5038120;28;20047;-91
2023/01/02 00:29:39;;;;;;;0.90;0.40;;;9.80;99.90;;;;;;5035262;28;20075;-88
2023/01/02 00:32:05;;;;;;;0.87;0.30;;;9.80;99.90;;;;;;5001705;28;20138;-88
2023/01/02 00:34:31;;;;;;;0.40;0.40;;;9.80;99.90;;;;;;5017564;28;20045;-88
2023/01/02 00:36:56;;;;;;;0.43;0.43;;;9.80;99.90;;;;;;5034270;28;20041;-88
2023/01/02 00:39:22;;;;;;;1.00;0.43;;;9.80;99.90;;;;;;5001212;28;20092;-88
2023/01/02 00:41:48;;;;;;;0.40;0.40;;;9.80;99.90;;;;;;5034181;28;20094;-88
2023/01/02 00:44:14;;;;;;;1.13;0.70;;;9.80;99.90;;;;;;5057076;28;20473;-89
2023/01/02 00:46:41;;;;;;;0.20;0.13;;;9.80;99.90;;;;;;5057624;28;20126;-88
2023/01/02 00:49:07;;;;;;;0.40;0.28;;;9.80;99.90;;;;;;5057018;28;20505;-88
2023/01/02 00:51:33;;;;;;;1.73;0.70;;;9.80;99.90;;;;;;5059929;28;20051;-88
2023/01/02 00:53:58;;;;;;;1.10;0.70;;;9.80;99.90;;;;;;5078019;28;20080;-88
2023/01/02 00:56:24;;;;;;;2.57;0.50;;;9.90;99.90;;;;;;5077321;28;20044;-88
2023/01/02 00:58:50;;;;;;;1.50;0.87;;;9.90;99.90;;;;;;5027355;28;20123;-88
2023/01/02 01:01:15;;;;;;;0.60;0.60;;;9.90;99.90;;;;;;5056842;28;20089;-91
2023/01/02 01:03:42;;;;;;;0.80;0.80;;;9.90;99.90;;;;;;5024403;28;20084;-88
2023/01/02 01:06:11;;;;;;;0.60;0.38;;;9.90;99.90;;;;;;4992200;28;20467;-88
2023/01/02 01:08:38;;;;;;;1.42;1.20;;;9.90;99.90;;;;;;5036704;28;20636;-88
2023/01/02 01:11:09;;;;;;;0.82;0.47;;;9.90;99.90;;;;;;5036998;28;20120;-88
2023/01/02 01:13:35;;;;;;;3.08;0.50;;;9.90;99.90;;;;;;5020491;28;20136;-88
2023/01/02 01:16:20;;;;;;;1.02;0.82;;;10.00;99.90;;;;;;5021183;28;20045;-88
2023/01/02 01:18:46;;;;;;;1.13;0.60;;;9.90;99.90;;;;;;5037417;28;20132;-88
2023/01/02 01:21:18;;;;;;;2.50;0.77;;;10.00;99.90;;;;;;5036803;28;20099;-88
2023/01/02 01:23:48;;;;;;;0.45;0.45;;;10.00;99.90;;;;;;5020685;28;20045;-88
2023/01/02 01:26:14;;;;;;;1.42;0.70;;;10.00;99.90;;;;;;5021087;28;20048;-88
2023/01/02 01:28:40;;;;;;;1.70;0.80;;;10.00;99.90;;;;;;5037221;28;20044;-88
2023/01/02 01:31:11;;;;;;;1.03;0.60;;;10.00;99.90;;;;;;5022810;28;20048;-88
2023/01/02 01:33:38;;;;;;;0.43;0.43;;;10.00;99.90;;;;;;5050058;28;20406;-88
2023/01/02 01:36:10;;;;;;;1.75;0.77;;;10.00;99.90;;;;;;5024103;28;20059;-88
2023/01/02 01:38:36;;;;;;;0.95;0.60;;;10.00;99.90;;;;;;5056687;28;20044;-88
2023/01/02 01:41:02;;;;;;;0.40;0.35;;;10.10;99.90;;;;;;5039204;28;20368;-88
2023/01/02 01:43:41;;;;;;;1.77;0.70;;;10.00;99.90;;;;;;5023512;28;20045;-88
2023/01/02 01:46:18;;;;;;;0.93;0.77;;;10.10;99.90;;;;;;5040579;28;20137;-88
2023/01/02 01:48:45;;;;;;;1.17;0.73;;;10.00;99.90;;;;;;5040024;28;20407;-88
2023/01/02 01:51:12;;;;;;;0.45;0.45;;;10.10;99.90;;;;;;5036418;28;20047;-89
2023/01/02 01:53:38;;;;;;;0.60;0.60;;;10.10;99.90;;;;;;5019981;28;20404;-88
2023/01/02 01:56:06;;;;;;;0.63;0.60;;;10.10;99.90;;;;;;5019741;28;20041;-88
2023/01/02 01:58:38;;;;;;;0.52;0.52;;;10.10;99.90;;;;;;5022266;28;20075;-89
2023/01/02 02:01:04;;;;;;;1.00;0.88;;;10.10;99.90;;;;;;5029217;28;20041;-89
2023/01/02 02:03:32;;;;;;;0.65;0.52;;;10.10;99.90;;;;;;5019708;28;20053;-89
2023/01/02 02:06:00;;;;;;;1.65;0.82;;;10.10;99.90;;;;;;5050380;28;20055;-89
2023/01/02 02:08:30;;;;;;;0.45;0.32;;;10.10;99.90;;;;;;5056188;28;20056;-90
2023/01/02 02:10:57;;;;;;;0.50;0.50;;;10.10;99.90;;;;;;5054036;28;20036;-88
2023/01/02 02:13:23;;;;;;;0.68;0.50;;;10.10;99.90;;;;;;5039960;28;20048;-89
2023/01/02 02:16:14;;;;;;;0.80;0.50;;;10.20;99.90;;;;;;5006810;28;20089;-89
2023/01/02 02:19:17;;;;;;;0.90;0.63;;;10.10;99.90;;;;;;5039421;28;20057;-88
2023/01/02 02:21:58;;;;;;;0.47;0.47;;;10.20;99.90;;;;;;5040053;28;20048;-89
2023/01/02 02:24:42;;;;;;;1.80;0.73;;;10.20;99.90;;;;;;5056199;28;20084;-89
2023/01/02 02:27:54;;;;;;;1.83;0.68;;;10.20;99.90;;;;;;5056327;28;20490;-89
2023/01/02 02:30:31;;;;;;;1.30;0.52;;;10.30;99.90;;;;;;5053756;28;20075;-89
2023/01/02 02:33:40;;;;;;;0.50;0.40;;;10.30;99.90;;;;;;5035950;28;20088;-89
2023/01/02 02:36:16;;;;;;;0.52;0.47;;;10.30;99.90;;;;;;5036165;28;20063;-89
2023/01/02 02:38:57;;;;;;;0.45;0.45;;;10.30;99.90;;;;;;5052355;28;20466;-89
2023/01/02 02:41:44;;;;;;;2.05;0.60;;;10.30;99.90;;;;;;5036156;28;20141;-88
2023/01/02 02:44:18;;;;;;;0.80;0.55;;;10.30;99.90;;;;;;5056084;28;20048;-89
2023/01/02 02:47:04;;;;;;;0.52;0.22;;;10.30;99.90;;;;;;5055338;28;20052;-88
2023/01/02 02:49:56;;;;;;;1.05;0.55;;;10.30;99.90;;;;;;5055422;28;20048;-92
2023/01/02 02:52:31;;;;;;;0.90;0.40;;;10.30;99.90;;;;;;5055171;28;20048;-89
2023/01/02 02:55:24;;;;;;;1.30;0.50;;;10.30;99.90;;;;;;5038935;28;20056;-88
2023/01/02 02:57:51;;;;;;;0.90;0.50;;;10.30;99.90;;;;;;5055319;28;20113;-89
2023/01/02 03:00:21;;;;;;;0.32;0.32;;;10.30;99.90;;;;;;5055314;28;20041;-89
2023/01/02 03:02:47;;;;;;;0.73;0.40;;;10.40;99.90;;;;;;5040896;28;20510;-89
2023/01/02 03:05:19;;;;;;;1.57;0.63;;;10.40;99.90;;;;;;5075075;28;20091;-89
2023/01/02 03:08:37;;;;;;;0.45;0.40;;;10.30;99.90;;;;;;5092857;28;20051;-89
2023/01/02 03:11:03;;;;;;;0.68;0.38;;;10.40;99.90;;;;;;5035422;28;20109;-89
2023/01/02 03:13:28;;;;;;;0.73;0.73;;;10.30;99.90;;;;;;5027566;28;20044;-89
2023/01/02 03:16:18;;;;;;;0.70;0.70;;;10.30;99.90;;;;;;5054617;28;20045;-89
2023/01/02 03:19:05;;;;;;;1.20;0.30;;;10.30;99.90;;;;;;5038345;28;20051;-88
2023/01/02 03:21:36;;;;;;;0.47;0.30;;;10.30;99.90;;;;;;5038918;28;20395;-89
2023/01/02 03:24:06;;;;;;;0.30;0.30;;;10.30;99.90;;;;;;5050570;28;20040;-89
2023/01/02 03:26:34;;;;;;;0.68;0.50;;;10.40;99.90;;;;;;5058627;28;20047;-89
2023/01/02 03:29:11;;;;;;;0.68;0.38;;;10.40;99.90;;;;;;5075179;28;20040;-89
2023/01/02 03:31:40;;;;;;;0.57;0.50;;;10.40;99.90;;;;;;5040145;28;20055;-92
2023/01/02 03:34:13;;;;;;;0.55;0.55;;;10.40;99.90;;;;;;5055100;28;20055;-88
2023/01/02 03:36:41;;;;;;;0.28;0.28;;;10.40;99.90;;;;;;5038167;28;20396;-90
2023/01/02 03:39:16;;;;;;;0.50;0.50;;;10.40;99.90;;;;;;5055089;28;20040;-88
2023/01/02 03:42:00;;;;;;;0.65;0.45;;;10.40;99.90;;;;;;5038189;28;20047;-89
2023/01/02 03:44:47;;;;;;;1.30;0.40;;;10.50;99.90;;;;;;5073851;28;20363;-88
2023/01/02 03:47:29;;;;;;;0.60;0.30;;;10.50;99.90;;;;;;5075550;28;20043;-89
2023/01/02 03:49:59;;;;;;;0.20;0.20;;;10.50;99.90;;;;;;5074790;28;20297;-89
2023/01/02 03:52:25;;;;;;;1.98;0.88;;;10.50;99.90;;;;;;5057761;28;20135;-89
2023/01/02 03:54:51;;;;;;;1.47;0.37;;;10.50;99.90;;;;;;5018214;28;20132;-88
2023/01/02 03:57:42;;;;;;;0.40;0.40;;;10.60;99.90;;;;;;5035001;28;20037;-88
2023/01/02 04:00:15;;;;;;;1.10;0.60;;;10.50;99.90;;;;;;5024467;28;20103;-88
2023/01/02 04:02:53;;;;;;;0.65;0.43;;;10.50;99.90;;;;;;5067629;28;20080;-93
2023/01/02 04:05:48;;;;;;;0.47;0.32;;;10.50;99.90;;;;;;5034866;28;20107;-88
2023/01/02 04:08:26;;;;;;;0.20;0.20;;;10.50;99.90;;;;;;5034997;28;20114;-89
2023/01/02 04:10:55;;;;;;;0.40;0.40;;;10.50;99.90;;;;;;5034376;28;20044;-89
2023/01/02 04:13:42;;;;;;;1.52;0.90;;;10.50;99.90;;;;;;5029224;28;20455;-89
2023/01/02 04:16:12;;;;;;;1.35;0.73;;;10.50;99.90;;;;;;5037826;28;20056;-89
2023/01/02 04:18:50;;;;;;;0.95;0.38;;;10.50;99.90;;;;;;5039831;28;20041;-88
2023/01/02 04:21:20;;;;;;;2.42;1.45;;;10.50;99.90;;;;;;5041734;28;20499;-89
2023/01/02 04:23:52;;;;;;;0.68;0.45;;;10.50;99.90;;;;;;5055395;28;20045;-89
2023/01/02 04:26:30;;;;;;;1.70;0.68;;;10.50;99.90;;;;;;5058831;28;20368;-88
2023/01/02 04:28:56;;;;;;;1.33;0.55;;;10.50;99.90;;;;;;5041306;28;20049;-88
2023/01/02 04:31:40;;;;;;;0.97;0.50;;;10.50;99.90;;;;;;5067217;28;20043;-88
2023/01/02 04:34:10;;;;;;;1.00;0.45;;;10.50;99.90;;;;;;5045218;28;20053;-88
2023/01/02 04:36:40;;;;;;;1.63;0.50;;;10.50;99.90;;;;;;5058154;28;20470;-88
2023/01/02 04:39:06;;;;;;;1.25;0.68;;;10.50;99.90;;;;;;5041070;28;20051;-88
2023/01/02 04:41:33;;;;;;;1.55;0.60;;;10.50;99.90;;;;;;5058334;28;20057;-88
2023/01/02 04:43:59;;;;;;;0.93;0.47;;;10.50;99.90;;;;;;5059903;28;20494;-89
2023/01/02 04:46:27;;;;;;;0.60;0.60;;;10.50;99.90;;;;;;5041385;28;20557;-89
2023/01/02 04:48:54;;;;;;;0.47;0.40;;;10.60;99.90;;;;;;5040841;28;20533;-88
2023/01/02 04:51:21;;;;;;;0.38;0.38;;;10.60;99.90;;;;;;5057778;28;20422;-88
2023/01/02 04:53:48;;;;;;;0.30;0.30;;;10.60;99.90;;;;;;5042215;28;20044;-89
2023/01/02 04:56:13;;;;;;;;;;;10.60;99.90;;;;;;5041447;28;20048;-88
2023/01/02 04:58:41;;;;;;;0.75;0.47;;;10.60;99.90;;;;;;5040967;28;19920;-88
2023/01/02 05:01:11;;;;;;;0.25;0.25;;;10.60;99.90;;;;;;5058590;28;20160;-89
2023/01/02 05:03:41;;;;;;;0.95;0.30;;;10.60;99.90;;;;;;5041107;28;20088;-89
2023/01/02 05:06:07;;;;;;;0.77;0.63;;;10.70;99.90;;;;;;5037075;28;20088;-88
2023/01/02 05:08:33;;;;;;;0.95;0.35;;;10.60;99.90;;;;;;5037753;28;20530;-88
2023/01/02 05:11:06;;;;;;;0.17;0.17;;;10.70;99.90;;;;;;5031339;28;20395;-88
2023/01/02 05:13:32;;;;;;;2.92;0.80;;;10.70;99.90;;;;;;5040624;28;20076;-88
2023/01/02 05:15:58;;;;;;;0.73;0.37;;;10.70;99.90;;;;;;5045093;28;20075;-88
2023/01/02 05:18:23;;;;;;;0.60;0.60;;;10.70;99.90;;;;;;5060945;28;20032;-88
2023/01/02 05:20:49;;;;;;;0.40;0.40;;;10.70;99.90;;;;;;5027933;28;20131;-88
2023/01/02 05:25:59;;;;;;;0.77;0.40;;;10.80;99.90;;;;;;5058148;28;20517;-88
2023/01/02 05:28:25;;;;;;;0.40;0.30;;;10.80;99.90;;;;;;5040734;28;20041;-88
2023/01/02 05:30:50;;;;;;;0.30;0.30;;;10.80;99.90;;;;;;5039617;28;20048;-88
2023/01/02 05:33:16;;;;;;;0.30;0.30;;;10.80;99.90;;;;;;5050781;28;20047;-88
2023/01/02 05:35:42;;;;;;;0.20;0.20;;;10.80;99.90;;;;;;5061625;28;20479;-88
2023/01/02 05:38:07;;;;;;;0.40;0.40;;;10.80;99.90;;;;;;5056626;28;20094;-88
2023/01/02 05:40:33;;;;;;;1.60;0.87;;;10.90;99.90;;;;;;5023547;28;20092;-88
2023/01/02 05:42:58;;;;;;;0.50;0.40;;;10.80;99.90;;;;;;5040062;28;20045;-88
2023/01/02 05:45:25;;;;;;;0.20;0.20;;;10.90;99.90;;;;;;5024144;28;20044;-89
2023/01/02 05:47:51;;;;;;;0.30;0.30;;;10.90;99.90;;;;;;5040177;28;20047;-88
2023/01/02 05:50:17;;;;;;;1.60;0.53;;;10.80;99.90;;;;;;5023523;28;20049;-88
2023/01/02 05:52:43;;;;;;;0.53;0.50;;;10.90;99.90;;;;;;5056988;28;20079;-88
2023/01/02 05:55:08;;;;;;;0.50;0.20;;;10.90;99.90;;;;;;5040022;28;20437;-89
2023/01/02 05:57:34;;;;;;;0.30;0.30;;;10.90;99.90;;;;;;5056692;28;20490;-88
2023/01/02 06:00:00;;;;;;;1.17;0.50;;;10.90;99.90;;;;;;5023677;28;20102;-88
2023/01/02 06:02:26;;;;;;;0.40;0.38;;;10.90;99.90;;;;;;5061117;28;20036;-88
2023/01/02 06:04:51;;;;;;;0.40;0.40;;;10.90;99.90;;;;;;5043123;28;20058;-88
2023/01/02 06:07:17;;;;;;;0.67;0.67;;;10.90;99.90;;;;;;5059487;28;20065;-89
2023/01/02 06:09:43;;;;;;;0.27;0.20;;;10.90;99.90;;;;;;5057487;28;20139;-89
2023/01/02 06:12:09;;;;;;;0.37;0.20;;;11.00;99.90;;;;;;5035001;28;20094;-88
2023/01/02 06:14:34;;;;;;;0.30;0.27;;;11.00;99.90;;;;;;5053630;28;20098;-88
2023/01/02 06:17:00;;;;;;;1.30;0.50;;;11.00;99.90;;;;;;5058801;28;20040;-90
2023/01/02 06:19:26;;;;;;;0.30;0.30;;;11.00;99.90;;;;;;5059899;28;20039;-88
2023/01/02 06:21:51;;;;;;;0.53;0.33;;;11.00;99.90;;;;;;5076742;28;20603;-88
2023/01/02 06:24:17;;;;;;;1.50;1.40;;;11.00;99.90;;;;;;5075901;28;20073;-88
2023/01/02 06:26:43;;;;;;;1.33;0.57;;;11.00;99.90;;;;;;5052512;28;20044;-88
2023/01/02 06:29:09;;;;;;;0.43;0.43;;;11.00;99.90;;;;;;5022825;28;20040;-88
2023/01/02 06:31:35;;;;;;;0.30;0.30;;;11.00;99.90;;;;;;5039955;28;20036;-88
2023/01/02 06:34:02;;;;;;;0.45;0.45;;;10.90;99.90;;;;;;5064583;28;20429;-89
2023/01/02 06:36:31;;;;;;;1.10;0.28;;;10.90;99.90;;;;;;5049337;28;20036;-88
2023/01/02 06:38:57;;;;;;;2.33;0.52;;;10.90;99.90;;;;;;5039697;28;20394;-89
2023/01/02 06:41:23;;;;;;;0.10;0.10;;;11.00;99.90;;;;;;5039233;28;20052;-89
2023/01/02 06:43:50;;;;;;;0.17;0.17;;;11.00;99.90;;;;;;5039716;28;20040;-89
2023/01/02 06:46:18;;;;;;;0.22;0.20;;;11.00;99.90;;;;;;5039352;28;20311;-89
2023/01/02 06:48:44;;;;;;;1.88;0.30;;;11.00;99.90;;;;;;5019325;28;20049;-88
2023/01/02 06:51:16;;;;;;;2.45;0.45;;;11.00;99.90;;;;;;5035402;28;20443;-88
2023/01/02 06:53:43;;;;;;;0.25;0.25;;;10.90;99.90;;;;;;5035838;28;20045;-87
2023/01/02 06:56:10;;;;;;;1.50;0.50;;;11.00;99.90;;;;;;5002445;28;20053;-89
2023/01/02 06:58:37;;;;;;;0.30;0.30;;;10.90;99.90;;;;;;5074398;28;20104;-88
2023/01/02 07:01:05;;;;;;;0.35;0.35;;;11.00;99.90;;;;;;5066359;28;20483;-88
2023/01/02 07:03:31;;;;;;;0.77;0.40;;;11.00;99.90;;;;;;5038849;28;20048;-89
2023/01/02 07:06:08;;;;;;;0.57;0.57;;;11.00;99.90;;;;;;5052197;28;20083;-88
2023/01/02 07:08:34;;;;;;;0.20;0.20;;;11.00;99.90;;;;;;5058306;28;20050;-88
2023/01/02 07:11:07;;;;;;;0.77;0.52;;;11.00;99.90;;;;;;5038987;28;20051;-88
2023/01/02 07:13:33;;;;;;;0.13;0.13;;;11.00;99.90;;;;;;5038934;28;20048;-87
2023/01/02 07:16:07;;;;;;;0.63;0.40;;;11.00;99.90;;;;;;5055305;28;20113;-88
2023/01/02 07:18:34;;;;;;;0.20;0.20;;;11.00;99.90;;;;;;5035102;28;20114;-88
2023/01/02 07:21:00;;;;;;;0.08;0.08;;;10.90;99.90;;;;;;5018250;28;20049;-88
2023/01/02 07:23:26;;;;;;;0.22;0.10;;;10.80;99.90;;;;;;5029812;28;20060;-87
2023/01/02 07:25:58;;;;;;;0.00;0.00;;;10.70;99.90;;;;;;5038489;28;20044;-88
2023/01/02 07:28:24;;;;;;;0.40;0.30;;;10.60;99.90;;;;;;5053665;28;20059;-88
2023/01/02 07:30:50;;;;;;;0.20;0.00;;;10.50;99.90;;;;;;5021814;28;20048;-88
2023/01/02 07:33:16;;;;;;;0.35;0.35;;;10.40;99.90;;;;;;5065394;28;20070;-88
2023/01/02 07:35:43;;;;;;;0.00;0.00;;;10.30;99.90;;;;;;5075175;28;20048;-88
2023/01/02 07:38:09;;;;;;;0.47;0.30;;;10.20;99.90;;;;;;5046118;28;20116;-92
2023/01/02 07:40:35;;;;;;;0.52;0.10;;;10.20;99.90;;;;;;5024337;28;20045;-88
2023/01/02 07:43:00;;;;;;;0.53;0.17;;;10.10;99.90;;;;;;5018555;28;20495;-88
2023/01/02 07:45:26;;;;;;;0.00;0.00;;;10.10;99.90;;;;;;5018573;28;20080;-88
2023/01/02 07:47:52;;;;;;;0.33;0.20;;;10.00;99.90;;;;;;5017990;28;20045;-88
2023/01/02 07:50:17;;;;;;;0.63;0.20;;;10.00;99.90;;;;;;5018522;28;20132;-88
2023/01/02 07:52:43;;;;;;;0.20;0.10;;;10.00;99.90;;;;;;5035763;28;20045;-88
2023/01/02 07:55:09;;;;;;;0.20;0.20;;;9.90;99.90;;;;;;5038351;28;20057;-88
2023/01/02 07:57:35;;;;;;;0.25;0.25;;;9.80;99.90;;;;;;5027759;28;20037;-88
2023/01/02 08:00:02;;;;;;;0.10;0.10;;;9.70;99.90;;;;;;5025787;28;20094;-87
2023/01/02 08:02:28;;;;;;;0.45;0.30;;;9.70;99.90;;;;;;5041019;28;20041;-89
2023/01/02 08:04:54;;;;;;;0.53;0.30;;;9.60;99.90;;;;;;5025325;28;20055;-87
2023/01/02 08:07:21;;;;;;;0.00;0.00;;;9.50;99.90;;;;;;5058942;28;20505;-87
2023/01/02 08:09:47;;;;;;;0.20;0.10;;;9.40;99.90;;;;;;5042046;28;20127;-87
2023/01/02 08:12:13;;;;;;;0.20;0.20;;;9.30;99.90;;;;;;5041693;28;20142;-90
2023/01/02 08:14:39;;;;;;;0.10;0.10;;;9.20;99.90;;;;;;5058105;28;20394;-88
2023/01/02 08:17:04;;;;;;;0.40;0.40;;;9.20;99.90;;;;;;5024488;28;20037;-87
2023/01/02 08:19:30;;;;;;;0.27;0.20;;;9.10;99.90;;;;;;5041090;28;20040;-87
2023/01/02 08:21:56;;;;;;;0.63;0.20;;;9.00;99.90;;;;;;5046479;28;20047;-88
2023/01/02 08:24:21;;;;;;;0.20;0.20;;;9.00;99.90;;;;;;5035390;28;20162;-87
2023/01/02 08:26:47;;;;;;;0.10;0.10;;;8.90;99.90;;;;;;5029351;28;20044;-89
2023/01/02 08:29:13;;;;;;;0.30;0.30;;;8.80;99.90;;;;;;5037821;28;20122;-88
2023/01/02 08:31:38;;;;;;;0.00;0.00;;;8.70;99.90;;;;;;5040142;28;20051;-87
2023/01/02 08:34:04;;;;;;;0.00;0.00;;;8.70;99.90;;;;;;5008569;28;20040;-86
2023/01/02 08:36:30;;;;;;;0.00;0.00;;;8.60;99.90;;;;;;5058129;28;20039;-87
2023/01/02 08:38:55;;;;;;;0.10;0.00;;;8.60;99.90;;;;;;5031356;28;20071;-87
2023/01/02 08:41:38;;;;;;;0.10;0.10;;;8.50;99.90;;;;;;5077919;28;20051;-87
2023/01/02 08:44:04;;;;;;;0.08;0.08;;;8.50;99.90;;;;;;5078352;28;20390;-87
2023/01/02 08:46:31;;;;;;;0.32;0.10;;;8.50;99.90;;;;;;5058724;28;21544;-89
2023/01/02 08:48:57;;;;;;;;;;;8.40;99.90;;;;;;5073566;28;20419;-88
2023/01/02 08:51:23;;;;;;;0.00;0.00;;;8.40;99.90;;;;;;5061101;28;19973;-88
2023/01/02 08:53:50;;;;;;;0.00;0.00;;;8.30;99.90;;;;;;5031404;28;20054;-88
2023/01/02 08:56:30;;;;;;;0.28;0.00;;;8.30;99.90;;;;;;5041513;28;20449;-86
2023/01/02 08:59:04;;;;;;;0.45;0.10;;;8.20;99.90;;;;;;4897020;28;20392;-87
2023/01/02 09:01:31;;;;;;;0.00;0.00;;;8.20;99.90;;;;;;5058347;28;20044;-87
2023/01/02 09:03:57;;;;;;;0.77;0.05;;;8.20;99.90;;;;;;5057503;28;20453;-87
2023/01/02 09:06:25;;;;;;;0.57;0.05;;;8.10;99.90;;;;;;5057639;28;20523;-87
2023/01/02 09:08:52;;;;;;;0.00;0.00;;;8.20;99.90;;;;;;5040166;28;20044;-86
2023/01/02 09:11:19;;;;;;;;;;;8.10;99.90;;;;;;5042401;28;20041;-86
2023/01/02 09:13:45;;;;;;;0.17;0.10;;;8.10;99.90;;;;;;5056666;28;19942;-86
2023/01/02 09:16:11;;;;;;;0.00;0.00;;;8.10;99.90;;;;;;5061458;28;20487;-87
2023/01/02 09:18:38;;;;;;;0.00;0.00;;;8.10;99.90;;;;;;5077039;28;20043;-86
2023/01/02 09:21:04;;;;;;;0.17;0.00;;;8.10;99.90;;;;;;5044285;28;20126;-87
2023/01/02 09:23:31;;;;;;;0.08;0.08;;;8.10;99.90;;;;;;5050463;28;20110;-86
2023/01/02 09:26:02;;;;;;;0.00;0.00;;;8.10;99.90;;;;;;5045115;28;20047;-86
2023/01/02 09:28:30;;;;;;;0.40;0.00;;;8.10;99.90;;;;;;5027364;28;20040;-87
2023/01/02 09:30:56;;;;;;;0.00;0.00;;;8.00;99.90;;;;;;5057704;28;20118;-86
2023/01/02 09:33:22;;;;;;;0.10;0.10;;;8.10;99.90;;;;;;5057758;28;20479;-86
2023/01/02 09:35:48;;;;;;;0.10;0.00;;;8.10;99.90;;;;;;5024267;28;20048;-86
2023/01/02 09:38:14;;;;;;;0.00;0.00;;;8.00;99.90;;;;;;5071999;28;20438;-87
2023/01/02 09:40:52;;;;;;;0.10;0.10;;;8.00;99.90;;;;;;5042723;28;20086;-88
2023/01/02 09:43:34;;;;;;;0.00;0.00;;;8.10;99.90;;;;;;5029759;28;20052;-86
2023/01/02 09:46:03;;;;;;;0.20;0.20;;;8.00;99.90;;;;;;5071116;28;20040;-87
2023/01/02 09:48:32;;;;;;;0.10;0.10;;;8.10;99.90;;;;;;5060231;28;20051;-88
2023/01/02 09:51:00;;;;;;;0.00;0.00;;;8.00;99.90;;;;;;5049941;28;20087;-88
2023/01/02 09:53:29;;;;;;;0.10;0.10;;;8.10;99.90;;;;;;5076229;28;20447;-90
2023/01/02 09:56:12;;;;;;;0.40;0.20;;;8.10;99.90;;;;;;5076528;28;20055;-89
2023/01/02 09:59:20;;;;;;;0.17;0.17;;;8.10;99.90;;;;;;5076324;28;20525;-89
2023/01/02 10:02:07;;;;;;;2.05;0.32;;;8.10;99.90;;;;;;5075491;28;20040;-91
2023/01/02 10:04:54;;;;;;;0.10;0.10;;;8.10;99.90;;;;;;5050520;28;20044;-89
2023/01/02 10:07:51;;;;;;;0.60;0.20;;;8.10;99.90;;;;;;5039765;28;20052;-89
2023/01/02 10:10:26;;;;;;;0.25;0.20;;;8.10;99.90;;;;;;5036346;28;20488;-89
2023/01/02 10:13:12;;;;;;;0.10;0.10;;;8.10;99.90;;;;;;5032328;28;20127;-91
2023/01/02 10:15:43;;;;;;;0.10;0.10;;;8.10;99.90;;;;;;5055492;28;20438;-89
2023/01/02 10:18:38;;;;;;;0.00;0.00;;;8.10;99.90;;;;;;5040531;28;20439;-88
2023/01/02 10:21:17;;;;;;;0.13;0.08;;;8.20;99.90;;;;;;5056090;28;20048;-88
2023/01/02 10:24:01;;;;;;;0.00;0.00;;;8.20;99.90;;;;;;5055347;28;20048;-88
2023/01/02 10:26:38;;;;;;;0.13;0.10;;;8.20;99.90;;;;;;5039806;28;20095;-88
2023/01/02 10:29:11;;;;;;;;;;;8.20;99.90;;;;;;5040154;28;20052;-89
2023/01/02 10:31:59;;;;;;;0.00;0.00;;;8.20;99.90;;;;;;5054873;28;20279;-89
2023/01/02 10:34:38;;;;;;;0.10;0.00;;;8.10;99.90;;;;;;5038963;28;20101;-90
2023/01/02 10:37:11;;;;;;;0.17;0.10;;;8.10;99.90;;;;;;5039277;28;20037;-89
2023/01/02 10:39:37;;;;;;;0.28;0.10;;;8.10;99.90;;;;;;5059845;28;20115;-89
2023/01/02 10:42:05;;;;;;;0.00;0.00;;;8.10;99.90;;;;;;5035661;28;20048;-90
2023/01/02 10:44:37;;;;;;;0.13;0.00;;;8.10;99.90;;;;;;5036029;28;20052;-90
2023/01/02 10:47:34;;;;;;;0.00;0.00;;;8.10;99.90;;;;;;5053404;28;20491;-89
2023/01/02 10:50:02;;;;;;;0.00;0.00;;;8.10;99.90;;;;;;5039933;28;20500;-90
2023/01/02 10:53:18;;;;;;;0.43;0.30;;;8.10;99.90;;;;;;5033002;28;20036;-89
2023/01/02 10:55:44;;;;;;;0.00;0.00;;;8.10;99.90;;;;;;5003280;28;20067;-89
2023/01/02 10:58:21;;;;;;;0.00;0.00;;;8.10;99.90;;;;;;5053627;28;20040;-88
2023/01/02 11:00:51;;;;;;;0.10;0.00;;;8.10;99.90;;;;;;5020743;28;20072;-89
2023/01/02 11:03:22;;;;;;;0.13;0.13;;;8.20;99.90;;;;;;5031289;28;20099;-90
2023/01/02 11:05:53;;;;;;;0.10;0.10;;;8.10;99.90;;;;;;5063692;28;20088;-91
2023/01/02 11:08:23;;;;;;;0.00;0.00;;;8.20;99.90;;;;;;5037359;28;20048;-90
2023/01/02 11:10:50;;;;;;;1.30;0.20;;;8.20;99.90;;;;;;5041439;28;20115;-90
2023/01/02 11:13:18;;;;;;;0.00;0.00;;;8.20;99.90;;;;;;5056438;28;20475;-90
2023/01/02 11:15:51;;;;;;;0.20;0.20;;;8.30;99.90;;;;;;5040570;28;20698;-90
2023/01/02 11:18:25;;;;;;;0.25;0.10;;;8.30;99.90;;;;;;5037515;28;20119;-90
2023/01/02 11:20:55;;;;;;;0.00;0.00;;;8.30;99.90;;;;;;5054708;28;20398;-91
2023/01/02 11:23:24;;;;;;;0.57;0.13;;;8.30;99.90;;;;;;5022014;28;20052;-90
2023/01/02 11:25:50;;;;;;;0.10;0.10;;;7.90;99.90;;;;;;5047802;28;20044;-91
2023/01/02 11:28:26;;;;;;;0.00;0.00;;;8.40;99.90;;;;;;5019754;28;20048;-91
2023/01/02 11:31:00;;;;;;;0.20;0.10;;;8.40;99.90;;;;;;5037691;28;20044;-91
2023/01/02 11:33:35;;;;;;;0.00;0.00;;;8.40;99.90;;;;;;5071415;28;20061;-90
2023/01/02 11:36:04;;;;;;;0.00;0.00;;;8.50;99.90;;;;;;5037982;28;20147;-90
2023/01/02 11:38:52;;;;;;;0.10;0.10;;;8.50;99.90;;;;;;5054916;28;20036;-90
2023/01/02 11:44:29;;;;;;;0.13;0.13;;;8.40;99.90;;;;;;5054441;28;20061;-88
2023/01/02 11:46:57;;;;;;;0.13;0.13;;;8.40;99.90;;;;;;5053603;28;20087;-88
2023/01/02 11:49:27;;;;;;;0.10;0.10;;;7.40;99.90;;;;;;5050059;28;20051;-88
2023/01/02 11:51:59;;;;;;;0.13;0.10;;;8.40;99.90;;;;;;5029737;28;20475;-88
2023/01/02 11:54:38;;;;;;;0.00;0.00;;;8.40;99.90;;;;;;5037912;28;20572;-89
2023/01/02 11:57:10;;;;;;;0.90;0.60;;;8.40;99.90;;;;;;5044376;28;20098;-88
2023/01/02 11:59:43;;;;;;;0.32;0.00;;;8.40;99.90;;;;;;5037495;28;20135;-90
2023/01/02 12:02:37;;;;;;;0.20;0.20;;;8.40;99.90;;;;;;5072283;28;20055;-88
2023/01/02 12:05:28;;;;;;;0.00;0.00;;;8.40;99.90;;;;;;5049227;28;20258;-87
2023/01/02 12:08:01;;;;;;;0.20;0.05;;;8.40;99.90;;;;;;4987610;28;20140;-88
2023/01/02 12:10:55;;;;;;;0.00;0.00;;;8.30;99.90;;;;;;5046158;28;20057;-88
2023/01/02 12:13:59;;;;;;;0.00;0.00;;;8.30;99.90;;;;;;5042448;28;20376;-87
2023/01/02 12:16:27;;;;;;;0.03;0.00;;;8.40;99.90;;;;;;4996141;28;20142;-87
2023/01/02 12:18:56;;;;;;;0.10;0.10;;;8.50;99.90;;;;;;5041152;28;20135;-88
2023/01/02 12:21:26;;;;;;;0.10;0.10;;;8.50;99.90;;;;;;5052234;28;20083;-87
2023/01/02 12:24:33;;;;;;;0.10;0.10;;;8.50;99.90;;;;;;5050100;28;20390;-88
2023/01/02 12:27:16;;;;;;;0.05;0.05;;;8.50;99.90;;;;;;4989284;28;20104;-90
2023/01/02 12:30:22;;;;;;;0.00;0.00;;;8.50;99.90;;;;;;5048450;28;20094;-88
2023/01/02 12:33:13;;;;;;;0.00;0.00;;;8.40;99.90;;;;;;5039192;28;20110;-93
2023/01/02 12:36:09;;;;;;;0.28;0.10;;;8.40;99.90;;;;;;5052654;28;20514;-94
2023/01/02 12:38:57;;;;;;;0.13;0.05;;;8.30;99.90;;;;;;5038808;28;20495;-89
2023/01/02 12:42:04;;;;;;;;;;;;;;;;;;;;;
2023/01/02 12:44:53;;;;;;;0.43;0.28;;;8.40;99.90;;;;;;5057429;28;20091;-89
2023/01/02 12:47:56;;;;;;;0.00;0.00;;;8.30;99.90;;;;;;5041024;28;20052;-89
2023/01/02 12:51:05;;;;;;;0.00;0.00;;;8.50;99.90;;;;;;5028554;28;20059;-88
2023/01/02 12:53:50;;;;;;;0.10;0.10;;;8.50;99.90;;;;;;5041266;28;20118;-88
2023/01/02 12:56:31;;;;;;;0.10;0.10;;;8.50;99.90;;;;;;5072609;28;20522;-88
2023/01/02 12:59:34;;;;;;;0.05;0.05;;;8.50;99.90;;;;;;5060685;28;20079;-89
2023/01/02 13:02:11;;;;;;;0.28;0.28;;;8.50;99.90;;;;;;5060878;28;20490;-88
2023/01/02 13:05:21;;;;;;;0.10;0.10;;;8.50;99.90;;;;;;5078137;28;20082;-89
2023/01/02 13:07:53;;;;;;;0.00;0.00;;;8.40;99.90;;;;;;5032823;28;20136;-88
2023/01/02 13:10:27;;;;;;;0.22;0.13;;;8.10;99.90;;;;;;5060504;28;20497;-88
2023/01/02 13:12:59;;;;;;;0.50;0.35;;;8.40;99.90;;;;;;5043866;28;20097;-92
2023/01/02 13:15:29;;;;;;;0.00;0.00;;;7.50;99.90;;;;;;5041594;28;20056;-87
2023/01/02 13:18:07;;;;;;;0.10;0.10;;;8.40;99.90;;;;;;5057842;28;20044;-88
2023/01/02 13:21:04;;;;;;;1.98;0.45;;;8.40;99.90;;;;;;5041665;28;20091;-87
2023/01/02 13:23:32;;;;;;;0.00;0.00;;;8.40;99.90;;;;;;5057960;28;20049;-87
2023/01/02 13:26:09;;;;;;;0.00;0.00;;;8.40;99.90;;;;;;5057474;28;20052;-88
2023/01/02 13:28:54;;;;;;;;;;;8.50;99.90;;;;;;5041249;28;20131;-87